Time;durP1;ratioP1;P1;durP2;ratioP2;P2;SDS_P1;SDS_P2;PMS_P1;PMS_P2;Temp;Humidity;BMP_temperature;BMP_pressure;BME280_temperature;BME280_humidity;BME280_pressure;Samples;Min_cycle;Max_cycle;Signal;HPM_P1;HPM_P2
2023/07/26 00:00:34;;;;;;;3.00;1.97;;;17.10;81.50;;;;;;5035845;28;20475;-68
2023/07/26 00:03:01;;;;;;;2.70;2.20;;;17.10;81.50;;;;;;5035796;28;21043;-70
2023/07/26 00:05:27;;;;;;;7.80;3.07;;;17.10;81.60;;;;;;5036051;28;20458;-69
2023/07/26 00:07:54;;;;;;;4.77;2.17;;;17.10;81.70;;;;;;5035736;28;20454;-69
2023/07/26 00:10:23;;;;;;;2.70;1.97;;;17.10;81.70;;;;;;5035686;28;20540;-69
2023/07/26 00:12:50;;;;;;;5.67;2.00;;;17.20;82.30;;;;;;5035701;28;20486;-69
2023/07/26 00:15:16;;;;;;;5.27;2.60;;;17.20;82.30;;;;;;5035574;28;20873;-69
2023/07/26 00:17:43;;;;;;;4.43;2.33;;;17.10;82.30;;;;;;5035661;28;20454;-68
2023/07/26 00:20:11;;;;;;;8.07;2.13;;;17.10;82.60;;;;;;5035486;28;20470;-69
2023/07/26 00:22:37;;;;;;;3.00;2.50;;;17.20;82.90;;;;;;5034034;28;20450;-69
2023/07/26 00:25:06;;;;;;;4.80;2.10;;;17.20;83.20;;;;;;5035497;28;20446;-69
2023/07/26 00:27:35;;;;;;;4.93;2.50;;;17.20;83.60;;;;;;5035363;28;20450;-69
2023/07/26 00:30:02;;;;;;;4.20;2.70;;;17.20;83.80;;;;;;5035286;28;20481;-69
2023/07/26 00:32:29;;;;;;;4.73;2.60;;;17.20;83.90;;;;;;5035459;28;20489;-69
2023/07/26 00:34:56;;;;;;;8.20;2.70;;;17.20;83.60;;;;;;5035729;28;20485;-69
2023/07/26 00:37:24;;;;;;;3.27;2.60;;;17.30;83.80;;;;;;5039852;28;20450;-69
2023/07/26 00:39:51;;;;;;;8.20;3.00;;;17.30;84.40;;;;;;5043297;28;20473;-69
2023/07/26 00:42:18;;;;;;;6.17;2.60;;;17.30;82.70;;;;;;5037252;28;20450;-69
2023/07/26 00:44:47;;;;;;;9.97;2.57;;;17.30;82.50;;;;;;5034950;28;20450;-69
2023/07/26 00:47:14;;;;;;;5.30;2.60;;;17.30;81.80;;;;;;5035921;28;20496;-69
2023/07/26 00:49:41;;;;;;;9.23;2.47;;;17.30;82.30;;;;;;5035592;28;20458;-69
2023/07/26 00:52:10;;;;;;;7.90;2.73;;;17.30;82.20;;;;;;5035171;28;20482;-69
2023/07/26 00:54:37;;;;;;;7.33;2.47;;;17.40;82.10;;;;;;5035125;28;20454;-69
2023/07/26 00:57:04;;;;;;;6.07;2.50;;;17.40;81.30;;;;;;5034951;28;20454;-69
2023/07/26 00:59:31;;;;;;;5.53;2.30;;;17.40;81.00;;;;;;5035079;28;20462;-69
2023/07/26 01:01:59;;;;;;;3.77;2.17;;;17.40;81.90;;;;;;5034601;28;20960;-69
2023/07/26 01:04:26;;;;;;;5.67;2.47;;;17.50;81.90;;;;;;5035009;28;20446;-69
2023/07/26 01:07:01;;;;;;;5.00;2.63;;;17.40;81.90;;;;;;5034702;28;20473;-69
2023/07/26 01:09:41;;;;;;;4.53;2.60;;;17.40;81.30;;;;;;5034492;28;20912;-69
2023/07/26 01:12:14;;;;;;;3.50;2.83;;;17.40;81.50;;;;;;5034760;28;20465;-69
2023/07/26 01:14:46;;;;;;;4.30;2.57;;;17.40;82.10;;;;;;5034799;28;20458;-69
2023/07/26 01:17:14;;;;;;;5.07;2.70;;;17.40;82.60;;;;;;5035589;28;20920;-69
2023/07/26 01:19:41;;;;;;;6.57;2.73;;;17.40;82.90;;;;;;5034591;28;20457;-69
2023/07/26 01:22:10;;;;;;;10.07;3.40;;;17.40;82.90;;;;;;5034504;28;20442;-69
2023/07/26 01:24:36;;;;;;;9.27;2.60;;;17.30;82.70;;;;;;5034509;28;20497;-69
2023/07/26 01:27:04;;;;;;;4.77;2.77;;;17.30;82.40;;;;;;5034335;28;20458;-69
2023/07/26 01:29:30;;;;;;;5.37;2.70;;;17.20;82.00;;;;;;5034781;28;20446;-70
2023/07/26 01:31:57;;;;;;;5.60;2.93;;;17.20;82.70;;;;;;5034262;28;20478;-69
2023/07/26 01:34:25;;;;;;;3.67;3.20;;;17.20;82.70;;;;;;5034400;28;20450;-69
2023/07/26 01:36:53;;;;;;;5.87;3.03;;;17.20;82.70;;;;;;5032482;28;20446;-69
2023/07/26 01:39:22;;;;;;;5.30;3.00;;;17.20;82.70;;;;;;5034226;28;20447;-69
2023/07/26 01:41:50;;;;;;;7.10;2.97;;;17.20;82.40;;;;;;5033947;28;20470;-69
2023/07/26 01:44:16;;;;;;;6.33;2.80;;;17.20;82.40;;;;;;5033807;28;20448;-69
2023/07/26 01:46:44;;;;;;;6.80;3.00;;;17.20;82.00;;;;;;5033988;28;20500;-69
2023/07/26 01:49:12;;;;;;;3.43;3.00;;;17.20;82.00;;;;;;5032961;28;20953;-69
2023/07/26 01:51:39;;;;;;;6.93;2.70;;;17.20;82.30;;;;;;5033264;28;20551;-70
2023/07/26 01:54:07;;;;;;;4.03;3.47;;;17.20;82.10;;;;;;5033585;28;20951;-69
2023/07/26 01:56:35;;;;;;;6.10;3.00;;;17.20;82.70;;;;;;5033485;28;20812;-69
2023/07/26 01:59:01;;;;;;;4.20;2.60;;;17.10;83.10;;;;;;5033733;28;20455;-69
2023/07/26 02:01:28;;;;;;;3.85;3.20;;;17.10;83.10;;;;;;5033125;28;20431;-69
2023/07/26 02:03:56;;;;;;;5.73;2.80;;;17.20;83.60;;;;;;5033850;28;20207;-69
2023/07/26 02:06:23;;;;;;;3.63;2.90;;;17.20;83.10;;;;;;5033388;28;20950;-69
2023/07/26 02:08:50;;;;;;;6.40;2.80;;;17.20;82.60;;;;;;5033695;28;20454;-69
2023/07/26 02:11:16;;;;;;;3.90;2.60;;;17.30;82.80;;;;;;5033608;28;20466;-69
2023/07/26 02:13:45;;;;;;;8.40;3.10;;;17.30;82.40;;;;;;5033630;28;20910;-69
2023/07/26 02:16:11;;;;;;;6.20;3.00;;;17.30;82.70;;;;;;5033772;28;20439;-69
2023/07/26 02:18:38;;;;;;;5.10;2.80;;;17.20;82.00;;;;;;5033559;28;20981;-69
2023/07/26 02:21:05;;;;;;;3.20;2.57;;;17.20;82.10;;;;;;5032980;28;20931;-69
2023/07/26 02:23:32;;;;;;;2.97;2.67;;;17.20;82.50;;;;;;5034431;28;20438;-69
2023/07/26 02:25:58;;;;;;;5.53;2.57;;;17.20;82.80;;;;;;5033877;28;20841;-70
2023/07/26 02:28:25;;;;;;;7.90;2.97;;;17.20;82.90;;;;;;5036121;28;20473;-70
2023/07/26 02:30:53;;;;;;;6.27;2.60;;;17.20;82.60;;;;;;5039660;28;20834;-69
2023/07/26 02:33:22;;;;;;;10.70;2.60;;;17.20;82.80;;;;;;5040678;28;20489;-69
2023/07/26 02:35:48;;;;;;;4.33;2.77;;;17.10;82.80;;;;;;5036697;28;20453;-69
2023/07/26 02:38:15;;;;;;;6.30;3.23;;;17.10;83.00;;;;;;5037503;28;20447;-69
2023/07/26 02:40:42;;;;;;;10.20;2.67;;;17.10;83.10;;;;;;5038343;28;20565;-69
2023/07/26 02:43:09;;;;;;;4.73;2.50;;;17.10;83.30;;;;;;5037281;28;20504;-69
2023/07/26 02:45:35;;;;;;;11.43;2.73;;;17.10;83.40;;;;;;5036046;28;20821;-69
2023/07/26 02:48:04;;;;;;;2.90;2.70;;;17.10;83.00;;;;;;5036367;28;20442;-69
2023/07/26 02:50:30;;;;;;;8.33;3.30;;;17.10;82.70;;;;;;5034790;28;20520;-69
2023/07/26 02:52:59;;;;;;;6.57;3.00;;;17.10;82.80;;;;;;5034492;28;20483;-69
2023/07/26 02:55:26;;;;;;;5.50;2.70;;;17.10;82.80;;;;;;5034256;28;20451;-69
2023/07/26 02:57:52;;;;;;;7.60;2.80;;;17.10;83.00;;;;;;5034596;28;20454;-69
2023/07/26 03:00:19;;;;;;;6.17;2.70;;;17.10;83.50;;;;;;5037705;28;20897;-69
2023/07/26 03:02:46;;;;;;;5.17;3.83;;;17.10;83.70;;;;;;5049178;28;20948;-69
2023/07/26 03:05:14;;;;;;;4.20;2.70;;;17.10;83.70;;;;;;5039393;28;20816;-69
2023/07/26 03:07:45;;;;;;;3.03;2.70;;;17.10;84.70;;;;;;5039284;28;20446;-69
2023/07/26 03:10:13;;;;;;;5.17;3.50;;;17.10;84.10;;;;;;5038813;28;20477;-68
2023/07/26 03:12:40;;;;;;;4.43;3.00;;;17.10;83.90;;;;;;5038539;28;20526;-69
2023/07/26 03:15:08;;;;;;;7.67;3.53;;;17.10;83.60;;;;;;5038455;28;20462;-69
2023/07/26 03:17:35;;;;;;;3.83;3.17;;;17.10;84.30;;;;;;5037885;28;20451;-69
2023/07/26 03:20:03;;;;;;;3.93;3.33;;;17.10;84.10;;;;;;5037627;28;20979;-69
2023/07/26 03:22:31;;;;;;;3.30;3.00;;;17.10;84.20;;;;;;5037001;28;20496;-69
2023/07/26 03:24:58;;;;;;;5.03;3.33;;;17.10;85.40;;;;;;5037076;28;20477;-69
2023/07/26 03:27:24;;;;;;;3.97;3.23;;;17.10;86.20;;;;;;5037427;28;20445;-70
2023/07/26 03:29:51;;;;;;;3.80;2.73;;;17.10;86.90;;;;;;5036900;28;21005;-69
2023/07/26 03:32:18;;;;;;;3.40;3.10;;;17.10;87.60;;;;;;5036734;28;20478;-69
2023/07/26 03:34:45;;;;;;;10.90;3.50;;;17.10;88.60;;;;;;5036788;28;20449;-69
2023/07/26 03:37:12;;;;;;;3.67;3.37;;;17.10;89.70;;;;;;5036909;28;20446;-69
2023/07/26 03:39:40;;;;;;;7.57;4.20;;;17.00;90.20;;;;;;5036673;28;20955;-67
2023/07/26 03:42:07;;;;;;;8.03;5.33;;;16.70;91.20;;;;;;5036689;28;20457;-67
2023/07/26 03:44:34;;;;;;;7.40;4.00;;;16.50;92.30;;;;;;5036204;28;20994;-68
2023/07/26 03:47:01;;;;;;;3.33;2.40;;;16.30;92.80;;;;;;5036734;28;20449;-68
2023/07/26 03:49:28;;;;;;;3.20;2.00;;;16.10;92.30;;;;;;5036408;28;20453;-68
2023/07/26 03:51:54;;;;;;;3.87;2.90;;;16.00;92.10;;;;;;5036216;28;20857;-68
2023/07/26 03:54:21;;;;;;;2.77;2.53;;;15.90;92.30;;;;;;5036165;28;20493;-68
2023/07/26 03:56:49;;;;;;;2.20;2.00;;;16.00;93.00;;;;;;5036224;28;20446;-69
2023/07/26 03:59:16;;;;;;;3.67;3.00;;;16.00;93.40;;;;;;5036110;28;20446;-69
2023/07/26 04:01:43;;;;;;;3.60;2.30;;;16.10;93.50;;;;;;5036256;28;20482;-69
2023/07/26 04:04:09;;;;;;;3.07;2.07;;;16.20;93.70;;;;;;5036498;28;20970;-69
2023/07/26 04:06:36;;;;;;;3.97;2.80;;;16.20;93.70;;;;;;5036021;28;20453;-69
2023/07/26 04:09:03;;;;;;;2.77;2.53;;;16.30;93.60;;;;;;5035986;28;20443;-69
2023/07/26 04:11:30;;;;;;;3.30;2.80;;;16.30;93.60;;;;;;5035298;28;20470;-69
2023/07/26 04:13:58;;;;;;;4.47;2.10;;;16.40;93.60;;;;;;5035458;28;20482;-69
2023/07/26 04:16:25;;;;;;;2.77;2.57;;;16.40;93.60;;;;;;5035875;28;20453;-69
2023/07/26 04:18:52;;;;;;;5.33;2.50;;;16.40;93.60;;;;;;5035922;28;20454;-69
2023/07/26 04:21:19;;;;;;;3.30;1.90;;;16.40;93.40;;;;;;5035706;28;20474;-68
2023/07/26 04:23:47;;;;;;;4.93;2.20;;;16.40;93.30;;;;;;5035298;28;20805;-69
2023/07/26 04:26:14;;;;;;;3.30;2.60;;;16.40;93.30;;;;;;5034266;28;21010;-69
2023/07/26 04:28:41;;;;;;;3.03;2.53;;;16.30;93.20;;;;;;5034198;28;20970;-69
2023/07/26 04:31:09;;;;;;;3.67;2.47;;;16.40;93.60;;;;;;5035377;28;20524;-69
2023/07/26 04:33:36;;;;;;;5.77;2.37;;;16.40;93.60;;;;;;5035361;28;20854;-69
2023/07/26 04:36:02;;;;;;;4.67;2.77;;;16.40;93.70;;;;;;5035506;28;20450;-69
2023/07/26 04:38:29;;;;;;;4.47;3.13;;;16.50;93.90;;;;;;5035207;28;20442;-69
2023/07/26 04:40:56;;;;;;;3.07;2.77;;;16.50;93.80;;;;;;5035484;28;20470;-69
2023/07/26 04:43:23;;;;;;;6.93;3.40;;;16.50;93.60;;;;;;5035322;28;20446;-69
2023/07/26 04:45:51;;;;;;;3.73;2.80;;;16.50;93.60;;;;;;5035632;28;20454;-69
2023/07/26 04:48:20;;;;;;;4.47;3.10;;;16.50;93.50;;;;;;5035840;28;20446;-69
2023/07/26 04:50:48;;;;;;;5.77;2.77;;;16.50;93.50;;;;;;5034952;28;20470;-69
2023/07/26 04:53:15;;;;;;;3.10;2.77;;;16.40;93.50;;;;;;5033910;28;20991;-68
2023/07/26 04:55:43;;;;;;;3.63;2.90;;;16.40;93.70;;;;;;5035142;28;20814;-69
2023/07/26 04:58:10;;;;;;;3.00;2.80;;;16.40;93.90;;;;;;5033978;28;20457;-69
2023/07/26 05:00:38;;;;;;;8.03;3.10;;;16.40;93.60;;;;;;5035066;28;20564;-69
2023/07/26 05:03:05;;;;;;;3.33;3.03;;;16.40;93.80;;;;;;5034863;28;20478;-68
2023/07/26 05:05:34;;;;;;;4.23;2.80;;;16.40;93.80;;;;;;5034921;28;20454;-69
2023/07/26 05:08:01;;;;;;;4.50;3.30;;;16.40;94.00;;;;;;5033576;28;20450;-69
2023/07/26 05:10:28;;;;;;;6.33;3.87;;;16.50;94.20;;;;;;5034536;28;20470;-69
2023/07/26 05:12:56;;;;;;;5.43;4.00;;;16.60;94.40;;;;;;5033034;28;20479;-69
2023/07/26 05:15:23;;;;;;;4.70;3.90;;;16.60;94.50;;;;;;5034201;28;20474;-69
2023/07/26 05:17:51;;;;;;;4.97;4.47;;;16.70;94.60;;;;;;5034560;28;20446;-69
2023/07/26 05:20:18;;;;;;;4.30;4.00;;;16.70;94.20;;;;;;5034592;28;20881;-69
2023/07/26 05:22:46;;;;;;;7.43;5.70;;;16.70;94.00;;;;;;5033795;28;20458;-69
2023/07/26 05:25:12;;;;;;;5.03;4.13;;;16.70;93.80;;;;;;5037784;28;20454;-70
2023/07/26 05:27:39;;;;;;;4.80;4.40;;;16.70;93.70;;;;;;5047890;28;20451;-69
2023/07/26 05:30:07;;;;;;;4.93;4.43;;;16.80;93.90;;;;;;5036139;28;20469;-69
2023/07/26 05:32:34;;;;;;;4.87;4.37;;;16.80;93.90;;;;;;5035014;28;20454;-69
2023/07/26 05:35:02;;;;;;;4.30;3.93;;;16.80;94.00;;;;;;5034768;28;20966;-68
2023/07/26 05:37:29;;;;;;;5.77;4.60;;;16.80;94.20;;;;;;5034301;28;20461;-69
2023/07/26 05:40:00;;;;;;;5.43;4.10;;;16.80;94.00;;;;;;5034579;28;20466;-69
2023/07/26 05:42:26;;;;;;;8.23;5.23;;;16.90;93.80;;;;;;5034295;28;20804;-69
2023/07/26 05:44:53;;;;;;;7.60;4.70;;;16.90;93.20;;;;;;5034063;28;20435;-69
2023/07/26 05:47:20;;;;;;;5.23;4.37;;;16.90;93.60;;;;;;5033062;28;20450;-69
2023/07/26 05:49:47;;;;;;;6.13;5.40;;;16.90;93.90;;;;;;5034134;28;20454;-69
2023/07/26 05:52:14;;;;;;;8.67;4.63;;;17.00;94.20;;;;;;5034146;28;20446;-69
2023/07/26 05:54:40;;;;;;;7.37;3.80;;;17.10;94.30;;;;;;5032477;28;21003;-69
2023/07/26 05:57:09;;;;;;;10.80;5.07;;;17.20;94.20;;;;;;5034211;28;20450;-69
2023/07/26 05:59:35;;;;;;;8.97;5.10;;;17.30;93.90;;;;;;5034179;28;20453;-68
2023/07/26 06:02:02;;;;;;;6.27;4.97;;;17.40;93.80;;;;;;5033830;28;20437;-69
2023/07/26 06:04:29;;;;;;;6.07;5.00;;;17.40;93.50;;;;;;5034425;28;20450;-69
2023/07/26 06:06:56;;;;;;;12.17;4.80;;;17.50;93.40;;;;;;5034101;28;20477;-69
2023/07/26 06:09:25;;;;;;;7.10;4.30;;;17.50;93.10;;;;;;5034055;28;20486;-69
2023/07/26 06:11:52;;;;;;;5.93;4.43;;;17.50;92.60;;;;;;5033621;28;20471;-69
2023/07/26 06:14:21;;;;;;;6.70;4.80;;;17.60;92.40;;;;;;5033393;28;20509;-69
2023/07/26 06:16:49;;;;;;;4.50;4.10;;;17.60;92.30;;;;;;5033698;28;20431;-69
2023/07/26 06:19:16;;;;;;;11.10;4.77;;;17.60;92.00;;;;;;5033633;28;20446;-69
2023/07/26 06:21:43;;;;;;;8.73;5.70;;;17.60;92.10;;;;;;5033494;28;20462;-69
2023/07/26 06:24:10;;;;;;;9.33;5.10;;;17.70;92.20;;;;;;5033536;28;20434;-69
2023/07/26 06:26:37;;;;;;;7.80;6.10;;;17.80;92.50;;;;;;5033581;28;20446;-68
2023/07/26 06:29:03;;;;;;;6.60;4.83;;;17.80;92.80;;;;;;5033450;28;20450;-68
2023/07/26 06:31:32;;;;;;;5.80;4.70;;;17.90;92.70;;;;;;5033139;28;20466;-69
2023/07/26 06:33:58;;;;;;;7.13;5.00;;;18.00;92.70;;;;;;5033693;28;20482;-69
2023/07/26 06:36:25;;;;;;;6.20;5.20;;;18.00;93.00;;;;;;5040090;28;20446;-69
2023/07/26 06:38:52;;;;;;;7.83;6.47;;;18.10;92.10;;;;;;5039859;28;20793;-69
2023/07/26 06:41:19;;;;;;;6.10;5.00;;;18.10;91.90;;;;;;5039919;28;20474;-69
2023/07/26 06:43:45;;;;;;;11.47;5.30;;;18.10;91.60;;;;;;5039927;28;20442;-69
2023/07/26 06:46:12;;;;;;;5.57;5.10;;;18.10;91.40;;;;;;5039622;28;20959;-69
2023/07/26 06:48:41;;;;;;;4.53;4.13;;;18.20;92.30;;;;;;5039362;28;20449;-69
2023/07/26 06:51:07;;;;;;;7.70;5.90;;;18.30;92.60;;;;;;5039814;28;20879;-69
2023/07/26 06:53:34;;;;;;;6.23;5.13;;;18.30;92.60;;;;;;5040249;28;20474;-69
2023/07/26 06:56:01;;;;;;;6.83;5.30;;;18.40;91.70;;;;;;5039794;28;20446;-69
2023/07/26 06:58:28;;;;;;;6.40;4.53;;;18.30;90.40;;;;;;5039717;28;20465;-69
2023/07/26 07:00:55;;;;;;;8.90;5.87;;;18.30;90.80;;;;;;5039555;28;20462;-69
2023/07/26 07:03:22;;;;;;;6.40;5.40;;;18.20;91.00;;;;;;5039227;28;20446;-69
2023/07/26 07:05:50;;;;;;;7.43;5.87;;;18.30;91.60;;;;;;5039878;28;20441;-69
2023/07/26 07:08:17;;;;;;;6.20;5.60;;;18.30;92.10;;;;;;5039581;28;20450;-69
2023/07/26 07:10:44;;;;;;;7.70;5.50;;;18.50;92.40;;;;;;5040039;28;20474;-69
2023/07/26 07:13:11;;;;;;;9.73;5.40;;;18.40;91.80;;;;;;5038593;28;20535;-69
2023/07/26 07:15:38;;;;;;;10.23;5.60;;;18.40;91.30;;;;;;5040164;28;20457;-69
2023/07/26 07:18:05;;;;;;;8.10;5.70;;;18.40;91.80;;;;;;5039519;28;20450;-69
2023/07/26 07:20:32;;;;;;;13.67;6.37;;;18.60;92.40;;;;;;5039594;28;20477;-69
2023/07/26 07:23:00;;;;;;;6.30;5.20;;;18.60;91.50;;;;;;5039546;28;20449;-69
2023/07/26 07:25:26;;;;;;;8.00;5.47;;;18.60;91.60;;;;;;5039470;28;20450;-69
2023/07/26 07:27:53;;;;;;;7.10;5.77;;;18.60;91.90;;;;;;5039270;28;20451;-69
2023/07/26 07:30:20;;;;;;;9.23;5.87;;;18.60;91.70;;;;;;5039429;28;20470;-69
2023/07/26 07:32:47;;;;;;;10.87;5.33;;;18.70;91.50;;;;;;5039425;28;20450;-69
2023/07/26 07:35:14;;;;;;;7.17;5.77;;;18.80;91.30;;;;;;5039342;28;20486;-69
2023/07/26 07:37:40;;;;;;;6.83;6.10;;;18.90;91.10;;;;;;5039459;28;20473;-69
2023/07/26 07:40:11;;;;;;;8.60;6.13;;;19.00;91.40;;;;;;5039466;28;20476;-69
2023/07/26 07:42:38;;;;;;;8.40;5.60;;;19.10;91.50;;;;;;5039188;28;20430;-69
2023/07/26 07:45:05;;;;;;;7.83;6.00;;;19.30;91.10;;;;;;5039126;28;20450;-69
2023/07/26 07:47:32;;;;;;;7.23;5.40;;;19.60;91.00;;;;;;5036247;28;20450;-69
2023/07/26 07:49:59;;;;;;;8.77;6.37;;;19.80;90.00;;;;;;5046986;28;20983;-69
2023/07/26 07:52:26;;;;;;;7.10;5.60;;;20.10;90.10;;;;;;5039725;28;20472;-69
2023/07/26 07:54:53;;;;;;;10.20;5.20;;;20.30;85.40;;;;;;5038307;28;20493;-69
2023/07/26 07:57:21;;;;;;;8.43;5.90;;;20.40;86.40;;;;;;5036920;28;20464;-69
2023/07/26 07:59:47;;;;;;;9.90;4.83;;;20.60;87.40;;;;;;5037131;28;20708;-69
2023/07/26 08:02:14;;;;;;;7.27;6.17;;;20.80;88.20;;;;;;5036786;28;20449;-69
2023/07/26 08:04:41;;;;;;;9.87;5.43;;;21.10;84.80;;;;;;5036666;28;20447;-69
2023/07/26 08:07:08;;;;;;;10.93;5.63;;;21.30;81.90;;;;;;5036271;28;20975;-69
2023/07/26 08:09:35;;;;;;;8.30;5.73;;;21.40;80.20;;;;;;5036117;28;20450;-69
2023/07/26 08:12:02;;;;;;;7.90;4.93;;;21.40;79.80;;;;;;5036171;28;20875;-69
2023/07/26 08:14:31;;;;;;;10.83;5.37;;;21.50;79.80;;;;;;5036199;28;20577;-69
2023/07/26 08:16:57;;;;;;;6.40;4.87;;;21.60;79.90;;;;;;5035905;28;20430;-69
2023/07/26 08:19:25;;;;;;;7.10;5.47;;;21.70;78.90;;;;;;5035960;28;20473;-69
2023/07/26 08:21:52;;;;;;;8.20;5.30;;;21.80;79.30;;;;;;5035681;28;20561;-69
2023/07/26 08:24:18;;;;;;;7.57;5.23;;;21.80;76.70;;;;;;5036246;28;20447;-69
2023/07/26 08:26:45;;;;;;;7.13;5.60;;;21.70;76.30;;;;;;5036108;28;20457;-69
2023/07/26 08:29:12;;;;;;;5.93;5.00;;;21.60;75.50;;;;;;5034593;28;20446;-69
2023/07/26 08:31:40;;;;;;;8.70;4.80;;;21.60;75.50;;;;;;5035588;28;20470;-69
2023/07/26 08:34:07;;;;;;;8.37;4.80;;;21.50;75.90;;;;;;5035533;28;20848;-69
2023/07/26 08:36:34;;;;;;;11.13;5.47;;;21.50;75.50;;;;;;5035144;28;20593;-69
2023/07/26 08:39:02;;;;;;;6.93;4.43;;;21.30;75.10;;;;;;5035388;28;20477;-69
2023/07/26 08:41:31;;;;;;;10.27;5.03;;;21.40;76.50;;;;;;5035250;28;20466;-69
2023/07/26 08:44:00;;;;;;;6.23;4.60;;;21.40;75.80;;;;;;5035160;28;20450;-69
2023/07/26 08:46:28;;;;;;;7.87;4.73;;;21.30;75.50;;;;;;5034799;28;20450;-69
2023/07/26 08:48:58;;;;;;;10.33;4.37;;;21.40;77.00;;;;;;5034780;28;20963;-69
2023/07/26 08:51:26;;;;;;;9.77;4.57;;;21.60;75.40;;;;;;5034667;28;20480;-69
2023/07/26 08:53:53;;;;;;;6.50;4.43;;;21.60;72.50;;;;;;5034649;28;20826;-69
2023/07/26 08:56:20;;;;;;;6.17;5.43;;;21.60;73.40;;;;;;5035154;28;20442;-69
2023/07/26 08:58:47;;;;;;;8.53;5.10;;;21.60;75.40;;;;;;5034609;28;20829;-69
2023/07/26 09:01:14;;;;;;;5.23;4.70;;;21.70;74.10;;;;;;5035055;28;20476;-69
2023/07/26 09:03:42;;;;;;;9.73;5.20;;;21.70;74.40;;;;;;5034654;28;20451;-69
2023/07/26 09:06:10;;;;;;;5.90;5.10;;;21.80;72.90;;;;;;5035153;28;20453;-69
2023/07/26 09:08:37;;;;;;;8.00;4.43;;;21.70;71.90;;;;;;5034774;28;20442;-68
2023/07/26 09:11:20;;;;;;;8.73;4.10;;;21.70;72.10;;;;;;5035023;28;20467;-69
2023/07/26 09:13:53;;;;;;;6.80;4.90;;;21.80;71.30;;;;;;5034484;28;20454;-68
2023/07/26 09:16:20;;;;;;;9.27;4.93;;;21.80;70.50;;;;;;5034187;28;20442;-69
2023/07/26 09:18:57;;;;;;;5.43;4.37;;;21.70;71.50;;;;;;5035193;28;20445;-69
2023/07/26 09:21:28;;;;;;;6.43;4.10;;;21.70;72.50;;;;;;5034412;28;20494;-69
2023/07/26 09:23:55;;;;;;;5.30;4.20;;;21.70;69.70;;;;;;5034203;28;20954;-69
2023/07/26 09:26:36;;;;;;;5.00;4.50;;;21.70;67.20;;;;;;5033586;28;20446;-69
2023/07/26 09:29:09;;;;;;;6.03;4.50;;;21.60;67.10;;;;;;5034589;28;20466;-69
2023/07/26 09:31:38;;;;;;;7.30;4.30;;;21.50;68.00;;;;;;5034855;28;20458;-69
2023/07/26 09:34:07;;;;;;;5.33;4.70;;;21.40;69.40;;;;;;5034471;28;20443;-70
2023/07/26 09:36:45;;;;;;;7.00;4.97;;;21.10;69.90;;;;;;5034777;28;20454;-69
2023/07/26 09:39:13;;;;;;;9.37;5.70;;;20.70;75.20;;;;;;5034271;28;20450;-68
2023/07/26 09:41:40;;;;;;;8.13;5.70;;;20.40;79.70;;;;;;5034030;28;20470;-67
2023/07/26 09:44:08;;;;;;;10.33;4.90;;;20.10;82.00;;;;;;5034257;28;20886;-68
2023/07/26 09:46:48;;;;;;;8.57;5.40;;;19.90;83.40;;;;;;5034118;28;20518;-69
2023/07/26 09:49:15;;;;;;;6.83;5.80;;;19.70;83.00;;;;;;5034302;28;20462;-69
2023/07/26 09:51:43;;;;;;;5.43;4.53;;;19.60;83.40;;;;;;5033962;28;20470;-69
2023/07/26 09:54:11;;;;;;;9.90;5.37;;;19.50;82.60;;;;;;5033706;28;20967;-69
2023/07/26 09:56:39;;;;;;;6.77;5.73;;;19.60;84.20;;;;;;5033932;28;20446;-69
2023/07/26 09:59:09;;;;;;;7.23;5.30;;;19.70;83.30;;;;;;5033830;28;20443;-69
2023/07/26 10:01:41;;;;;;;6.17;5.00;;;20.00;85.90;;;;;;5033843;28;20467;-68
2023/07/26 10:04:11;;;;;;;6.70;6.00;;;20.30;85.30;;;;;;5033840;28;20465;-69
2023/07/26 10:06:39;;;;;;;8.00;6.20;;;20.80;85.60;;;;;;5033472;28;20431;-69
2023/07/26 10:09:12;;;;;;;6.90;5.10;;;21.10;84.90;;;;;;5033460;28;20471;-69
2023/07/26 10:11:41;;;;;;;5.13;4.50;;;21.30;83.10;;;;;;5045935;28;20474;-69
2023/07/26 10:14:10;;;;;;;7.00;4.10;;;21.30;81.70;;;;;;5038208;28;20470;-69
2023/07/26 10:16:38;;;;;;;5.83;4.30;;;21.00;78.50;;;;;;5034587;28;20536;-68
2023/07/26 10:19:06;;;;;;;4.43;4.03;;;20.80;81.40;;;;;;5034548;28;20454;-69
2023/07/26 10:21:35;;;;;;;6.20;4.63;;;20.50;83.00;;;;;;5034017;28;20496;-69
2023/07/26 10:24:03;;;;;;;5.20;4.57;;;20.20;82.80;;;;;;5033746;28;20788;-69
2023/07/26 10:26:35;;;;;;;6.33;4.60;;;20.00;84.00;;;;;;5033881;28;20450;-69
2023/07/26 10:29:02;;;;;;;5.67;5.13;;;19.90;86.50;;;;;;5034050;28;20431;-69
2023/07/26 10:31:29;;;;;;;4.83;4.30;;;19.80;87.90;;;;;;5033145;28;20497;-68
2023/07/26 10:33:57;;;;;;;5.60;5.10;;;19.70;87.80;;;;;;5033824;28;20853;-69
2023/07/26 10:36:29;;;;;;;7.50;5.80;;;19.80;89.40;;;;;;5033583;28;20653;-69
2023/07/26 10:38:56;;;;;;;6.70;4.30;;;19.90;90.40;;;;;;5032361;28;20470;-69
2023/07/26 10:41:24;;;;;;;6.20;4.80;;;20.10;90.90;;;;;;5033721;28;20467;-69
2023/07/26 10:44:03;;;;;;;5.73;4.93;;;20.30;91.00;;;;;;5033412;28;20450;-68
2023/07/26 10:46:36;;;;;;;6.20;4.37;;;20.60;91.20;;;;;;5033211;28;20916;-69
2023/07/26 10:49:16;;;;;;;4.03;3.40;;;21.00;91.00;;;;;;5034296;28;20434;-69
2023/07/26 10:51:51;;;;;;;4.93;3.10;;;21.50;90.10;;;;;;5033692;28;20473;-69
2023/07/26 10:54:37;;;;;;;5.63;3.60;;;22.10;88.10;;;;;;5032954;28;20925;-69
2023/07/26 10:57:23;;;;;;;2.90;2.70;;;22.90;84.70;;;;;;5033418;28;20446;-68
2023/07/26 10:59:55;;;;;;;3.63;3.07;;;24.40;81.10;;;;;;5033495;28;20481;-69
2023/07/26 11:02:39;;;;;;;3.90;3.03;;;25.90;75.60;;;;;;5033300;28;20783;-69
2023/07/26 11:05:10;;;;;;;5.00;3.10;;;27.70;65.90;;;;;;5033319;28;20450;-69
2023/07/26 11:07:54;;;;;;;3.87;2.93;;;29.10;57.60;;;;;;5033817;28;20439;-69
2023/07/26 11:10:23;;;;;;;5.10;3.80;;;30.70;52.90;;;;;;5034070;28;20470;-67
2023/07/26 11:12:51;;;;;;;3.10;2.63;;;31.90;47.90;;;;;;5034388;28;20446;-69
2023/07/26 11:15:29;;;;;;;5.23;4.30;;;32.40;42.20;;;;;;5034252;28;20555;-69
2023/07/26 11:17:56;;;;;;;4.57;3.40;;;32.00;42.80;;;;;;5035402;28;20427;-68
2023/07/26 11:20:23;;;;;;;3.47;3.17;;;31.30;43.80;;;;;;5037746;28;20888;-68
2023/07/26 11:22:50;;;;;;;3.83;3.20;;;30.50;45.60;;;;;;5041567;28;20474;-68
2023/07/26 11:25:19;;;;;;;3.30;2.57;;;30.10;46.60;;;;;;5041890;28;20453;-68
2023/07/26 11:27:48;;;;;;;3.00;2.70;;;30.20;41.90;;;;;;5040722;28;20942;-68
2023/07/26 11:30:16;;;;;;;4.33;3.03;;;30.60;43.50;;;;;;5041478;28;20502;-68
2023/07/26 11:32:48;;;;;;;3.13;2.63;;;31.50;41.00;;;;;;5040696;28;20481;-68
2023/07/26 11:35:16;;;;;;;4.30;3.07;;;32.30;39.80;;;;;;5038577;28;20482;-68
2023/07/26 11:37:56;;;;;;;3.53;2.83;;;32.60;37.10;;;;;;5039205;28;20441;-69
2023/07/26 11:40:23;;;;;;;4.10;3.20;;;32.30;36.40;;;;;;5037665;28;20577;-68
2023/07/26 11:42:50;;;;;;;4.87;2.40;;;31.80;36.60;;;;;;5037661;28;20511;-69
2023/07/26 11:45:17;;;;;;;3.30;3.00;;;30.90;38.10;;;;;;5037543;28;20804;-69
2023/07/26 11:47:45;;;;;;;3.60;3.13;;;29.90;40.70;;;;;;5037450;28;20444;-68
2023/07/26 11:50:19;;;;;;;3.60;3.10;;;29.20;42.60;;;;;;5037422;28;20493;-68
2023/07/26 11:52:48;;;;;;;3.30;2.90;;;28.70;44.00;;;;;;5036872;28;20471;-68
2023/07/26 11:55:15;;;;;;;2.83;2.60;;;28.20;44.10;;;;;;5036725;28;20505;-68
2023/07/26 11:57:42;;;;;;;3.10;2.70;;;27.80;45.10;;;;;;5036893;28;20454;-68
2023/07/26 12:00:10;;;;;;;4.50;3.03;;;27.30;45.50;;;;;;5036799;28;20466;-68
2023/07/26 12:02:38;;;;;;;4.27;3.10;;;26.90;48.60;;;;;;5035177;28;20450;-69
2023/07/26 12:05:19;;;;;;;3.33;2.93;;;26.30;46.60;;;;;;5036545;28;20466;-68
2023/07/26 12:07:51;;;;;;;3.67;3.17;;;25.70;47.80;;;;;;5035890;28;20450;-68
2023/07/26 12:10:19;;;;;;;3.53;2.90;;;25.50;47.40;;;;;;5036443;28;20470;-69
2023/07/26 12:12:46;;;;;;;2.97;2.73;;;25.50;49.80;;;;;;5036311;28;20509;-69
2023/07/26 12:15:15;;;;;;;4.30;3.70;;;25.70;48.40;;;;;;5035421;28;21026;-70
2023/07/26 12:17:57;;;;;;;6.20;3.33;;;25.50;45.90;;;;;;5036112;28;20423;-67
2023/07/26 12:20:26;;;;;;;4.00;2.90;;;25.50;49.70;;;;;;5036223;28;20471;-68
2023/07/26 12:22:55;;;;;;;5.80;3.50;;;26.20;49.10;;;;;;5035910;28;20447;-68
2023/07/26 12:25:32;;;;;;;3.90;3.10;;;26.40;45.70;;;;;;5035751;28;20457;-68
2023/07/26 12:27:59;;;;;;;4.10;3.70;;;26.20;46.20;;;;;;5034876;28;20450;-68
2023/07/26 12:30:27;;;;;;;3.30;2.73;;;26.30;48.70;;;;;;5035950;28;20482;-68
2023/07/26 12:33:11;;;;;;;3.20;2.93;;;27.10;45.50;;;;;;5035920;28;20469;-68
2023/07/26 12:35:40;;;;;;;3.40;3.10;;;27.80;44.50;;;;;;5047419;28;20462;-68
2023/07/26 12:38:11;;;;;;;8.90;3.43;;;27.70;42.90;;;;;;5039692;28;20483;-68
2023/07/26 12:40:39;;;;;;;3.60;3.23;;;27.20;44.70;;;;;;5037224;28;20474;-68
2023/07/26 12:43:34;;;;;;;5.73;2.83;;;26.60;45.20;;;;;;5036140;28;20450;-68
2023/07/26 12:46:01;;;;;;;3.43;3.13;;;25.70;46.20;;;;;;5035777;28;20427;-68
2023/07/26 12:48:28;;;;;;;3.77;2.97;;;25.10;48.00;;;;;;5034938;28;20947;-69
2023/07/26 12:50:57;;;;;;;5.80;3.30;;;24.60;49.30;;;;;;5035630;28;20881;-69